Time;durP1;ratioP1;P1;durP2;ratioP2;P2;SDS_P1;SDS_P2;PMS_P1;PMS_P2;Temp;Humidity;BMP_temperature;BMP_pressure;BME280_temperature;BME280_humidity;BME280_pressure;Samples;Min_cycle;Max_cycle;Signal;HPM_P1;HPM_P2
2022/01/28 00:02:10;;;;;;;22.00;9.33;;;2.30;99.90;;;;;;5097643;28;20038;-91
2022/01/28 00:04:35;;;;;;;23.40;9.23;;;2.40;99.90;;;;;;5097654;28;20027;-89
2022/01/28 00:07:01;;;;;;;22.27;9.80;;;2.40;99.90;;;;;;5115716;28;20080;-86
2022/01/28 00:09:26;;;;;;;24.43;8.90;;;2.40;99.90;;;;;;5097943;28;20529;-87
2022/01/28 00:11:52;;;;;;;25.33;9.87;;;2.40;99.90;;;;;;5098212;28;20491;-88
2022/01/28 00:38:47;;;;;;;21.20;9.03;;;2.60;99.90;;;;;;5115110;28;20038;-87
2022/01/28 00:41:14;;;;;;;27.90;9.47;;;2.60;99.90;;;;;;5105612;27;20030;-83
2022/01/28 00:43:40;;;;;;;22.50;8.90;;;2.60;99.90;;;;;;5107089;27;20050;-84
2022/01/28 00:46:06;;;;;;;22.40;9.60;;;2.60;99.90;;;;;;5126088;27;20488;-85
2022/01/28 00:48:31;;;;;;;19.93;8.83;;;2.70;99.90;;;;;;5108475;27;20023;-88
2022/01/28 00:50:57;;;;;;;22.33;9.80;;;2.70;99.90;;;;;;5107403;27;20030;-85
2022/01/28 00:53:23;;;;;;;19.37;8.80;;;2.70;99.90;;;;;;5106748;27;20380;-86
2022/01/28 00:55:48;;;;;;;24.63;9.07;;;2.70;99.90;;;;;;5108814;27;20279;-87
2022/01/28 00:58:14;;;;;;;23.37;10.20;;;2.70;99.90;;;;;;5108256;27;20382;-85
2022/01/28 01:00:40;;;;;;;24.03;9.03;;;2.70;99.90;;;;;;5137746;27;20011;-85
2022/01/28 01:03:06;;;;;;;18.73;9.30;;;2.70;99.90;;;;;;5131230;27;20011;-84
2022/01/28 01:05:34;;;;;;;18.77;8.67;;;2.70;99.90;;;;;;5124988;28;20012;-87
2022/01/28 01:08:00;;;;;;;21.57;8.83;;;2.70;99.90;;;;;;5124660;27;20026;-86
2022/01/28 01:10:27;;;;;;;19.23;8.77;;;2.70;99.90;;;;;;5107523;27;20016;-84
2022/01/28 01:12:53;;;;;;;22.93;8.97;;;2.70;99.90;;;;;;5106263;27;20569;-84
2022/01/28 01:15:23;;;;;;;20.70;8.27;;;2.70;99.90;;;;;;5108012;27;20201;-85
2022/01/28 01:22:53;;;;;;;23.13;8.73;;;2.80;99.90;;;;;;5126959;27;20055;-83
2022/01/28 01:25:22;;;;;;;23.67;8.80;;;2.80;99.90;;;;;;5091387;28;20047;-85
2022/01/28 01:27:53;;;;;;;17.30;8.57;;;2.80;99.90;;;;;;5090310;28;20448;-85
2022/01/28 01:30:19;;;;;;;20.60;9.23;;;2.80;99.90;;;;;;5089934;28;20020;-84
2022/01/28 01:32:45;;;;;;;21.20;8.37;;;2.70;99.90;;;;;;5088884;28;20477;-86
2022/01/28 01:35:11;;;;;;;19.63;9.00;;;2.70;99.90;;;;;;5120626;27;20063;-86
2022/01/28 01:37:36;;;;;;;24.63;9.53;;;2.70;99.90;;;;;;5105655;28;20110;-86
2022/01/28 01:40:03;;;;;;;20.83;8.57;;;2.70;99.90;;;;;;5104963;28;20054;-84
2022/01/28 01:42:43;;;;;;;18.27;8.53;;;2.70;99.90;;;;;;5096526;28;20059;-85
2022/01/28 01:53:10;;;;;;;24.80;10.03;;;2.80;99.90;;;;;;5115078;28;20400;-86
2022/01/28 01:55:35;;;;;;;19.83;8.80;;;2.80;99.90;;;;;;5096553;28;20028;-87
2022/01/28 01:58:01;;;;;;;21.43;9.57;;;2.80;99.90;;;;;;5097125;28;20427;-87
2022/01/28 02:00:27;;;;;;;23.97;10.30;;;2.70;99.90;;;;;;5095569;28;20023;-86
2022/01/28 02:02:53;;;;;;;24.33;9.60;;;2.70;99.90;;;;;;5096663;28;20023;-88
2022/01/28 02:05:18;;;;;;;17.40;9.00;;;2.70;99.90;;;;;;5096182;28;20500;-87
2022/01/28 02:07:45;;;;;;;21.47;9.00;;;2.70;99.90;;;;;;5097844;28;20031;-87
2022/01/28 02:10:12;;;;;;;19.47;9.33;;;2.70;99.90;;;;;;5100351;28;20031;-88
2022/01/28 02:12:46;;;;;;;21.43;8.67;;;2.70;99.90;;;;;;5099880;28;20118;-87
2022/01/28 02:15:11;;;;;;;21.57;9.10;;;2.70;99.90;;;;;;5099204;28;20031;-88
2022/01/28 02:17:37;;;;;;;20.63;9.13;;;2.70;99.90;;;;;;5099734;28;20487;-87
2022/01/28 02:20:03;;;;;;;21.57;8.87;;;2.80;99.90;;;;;;5102103;28;20028;-87
2022/01/28 02:22:28;;;;;;;23.40;9.57;;;2.80;99.90;;;;;;5097678;28;20024;-87
2022/01/28 02:24:54;;;;;;;25.43;9.37;;;2.80;99.90;;;;;;5099161;28;20028;-88
2022/01/28 02:27:19;;;;;;;20.50;8.40;;;2.90;99.90;;;;;;5096192;28;20054;-92
2022/01/28 02:29:46;;;;;;;20.70;8.97;;;2.90;99.90;;;;;;5096366;28;20084;-92
2022/01/28 02:32:12;;;;;;;19.57;8.47;;;2.90;99.90;;;;;;5097004;28;20032;-90
2022/01/28 02:34:39;;;;;;;22.17;9.37;;;3.00;99.90;;;;;;5096387;28;20122;-90
2022/01/28 02:37:05;;;;;;;18.97;8.70;;;3.00;99.90;;;;;;5096814;28;20028;-90
2022/01/28 02:39:31;;;;;;;21.00;9.17;;;3.00;99.90;;;;;;5095936;28;20114;-91
2022/01/28 02:42:11;;;;;;;18.53;8.23;;;3.00;99.90;;;;;;5114200;28;20047;-86
2022/01/28 02:44:45;;;;;;;25.33;9.20;;;3.10;99.90;;;;;;5114081;28;20215;-87
2022/01/28 02:47:15;;;;;;;18.53;8.97;;;3.10;99.90;;;;;;5096249;28;20136;-87
2022/01/28 02:49:43;;;;;;;23.47;9.33;;;3.10;99.90;;;;;;5096150;28;20038;-85
2022/01/28 02:52:17;;;;;;;21.97;9.17;;;3.10;99.90;;;;;;5096174;28;20544;-85
2022/01/28 02:54:46;;;;;;;21.70;9.60;;;3.10;99.90;;;;;;5095897;28;20469;-85
2022/01/28 02:57:15;;;;;;;21.97;9.17;;;3.10;99.90;;;;;;5113607;28;20026;-84
2022/01/28 02:59:40;;;;;;;22.23;10.00;;;3.10;99.90;;;;;;5094570;28;20047;-84
2022/01/28 03:02:06;;;;;;;23.23;9.20;;;3.10;99.90;;;;;;5096286;28;20457;-83
2022/01/28 03:07:16;;;;;;;22.83;9.53;;;3.10;99.90;;;;;;5114204;28;20027;-89
2022/01/28 03:12:34;;;;;;;22.67;9.20;;;3.10;99.90;;;;;;5113806;28;20062;-87
2022/01/28 03:15:07;;;;;;;19.33;8.73;;;3.10;99.90;;;;;;5096117;28;20036;-85
2022/01/28 03:20:28;;;;;;;20.77;8.70;;;3.10;99.90;;;;;;5113800;28;20465;-85
2022/01/28 03:22:53;;;;;;;24.70;9.63;;;3.10;99.90;;;;;;5113942;28;20042;-85
2022/01/28 03:25:19;;;;;;;21.90;9.33;;;3.10;99.90;;;;;;5113081;28;20480;-84
2022/01/28 03:27:53;;;;;;;23.50;10.00;;;3.10;99.90;;;;;;5094949;28;20072;-85
2022/01/28 03:30:20;;;;;;;22.00;9.27;;;3.10;99.90;;;;;;5096036;28;20032;-85
2022/01/28 03:32:45;;;;;;;23.93;9.87;;;3.10;99.90;;;;;;5095805;28;20053;-85
2022/01/28 03:35:14;;;;;;;22.23;9.87;;;3.10;99.90;;;;;;5097657;28;20089;-85
2022/01/28 03:37:40;;;;;;;23.30;9.87;;;3.10;99.90;;;;;;5117385;28;20035;-84
2022/01/28 03:40:07;;;;;;;26.20;10.13;;;3.00;99.90;;;;;;5099518;28;20016;-85
2022/01/28 03:42:34;;;;;;;24.97;9.93;;;3.10;99.90;;;;;;5117068;28;20020;-85
2022/01/28 03:45:00;;;;;;;29.60;10.30;;;3.10;99.90;;;;;;5099524;28;20028;-85
2022/01/28 03:47:25;;;;;;;25.77;10.17;;;3.10;99.90;;;;;;5116926;28;20537;-85
2022/01/28 03:49:51;;;;;;;24.13;9.40;;;3.10;99.90;;;;;;5098853;28;20077;-85
2022/01/28 03:52:17;;;;;;;25.47;9.73;;;3.00;99.90;;;;;;5099176;28;20024;-85
2022/01/28 03:54:42;;;;;;;23.53;9.47;;;3.00;99.90;;;;;;5098705;28;20097;-84
2022/01/28 03:57:08;;;;;;;25.80;9.33;;;3.00;99.90;;;;;;5099187;28;20027;-85
2022/01/28 03:59:35;;;;;;;24.97;9.73;;;3.00;99.90;;;;;;5116601;28;20024;-84
2022/01/28 04:02:04;;;;;;;29.57;10.03;;;3.00;99.90;;;;;;5098614;28;20023;-85
2022/01/28 04:12:39;;;;;;;27.30;9.83;;;3.10;99.90;;;;;;5116334;28;20049;-87
2022/01/28 04:15:20;;;;;;;26.33;10.10;;;3.00;99.90;;;;;;5098729;28;20112;-86
2022/01/28 04:17:46;;;;;;;24.43;9.30;;;3.00;99.90;;;;;;5098402;28;20055;-85
2022/01/28 04:20:12;;;;;;;29.13;10.57;;;3.00;99.90;;;;;;5116563;28;20055;-85
2022/01/28 04:22:37;;;;;;;29.27;9.83;;;3.00;99.90;;;;;;5115990;28;20034;-85
2022/01/28 04:25:04;;;;;;;25.93;9.77;;;3.00;99.90;;;;;;5097720;28;20161;-84
2022/01/28 04:27:30;;;;;;;23.20;9.13;;;3.00;99.90;;;;;;5098590;28;20070;-84
2022/01/28 04:29:56;;;;;;;25.00;9.97;;;2.90;99.90;;;;;;5098450;28;20027;-84
2022/01/28 04:32:24;;;;;;;27.17;9.70;;;2.90;99.90;;;;;;5098587;28;20464;-84
2022/01/28 04:34:49;;;;;;;25.80;10.37;;;2.90;99.90;;;;;;5098337;28;20042;-84
2022/01/28 04:37:25;;;;;;;21.97;10.23;;;2.90;99.90;;;;;;5116323;28;20079;-84
2022/01/28 04:39:57;;;;;;;25.47;10.13;;;2.90;99.90;;;;;;5098564;28;20050;-84
2022/01/28 04:42:38;;;;;;;24.52;9.88;;;2.90;99.90;;;;;;5116593;28;20026;-84
2022/01/28 04:45:22;;;;;;;25.43;10.93;;;2.90;99.90;;;;;;5098793;28;20126;-84
2022/01/28 04:53:01;;;;;;;31.30;10.50;;;2.90;99.90;;;;;;5116689;28;20023;-92
2022/01/28 05:26:23;;;;;;;27.33;9.57;;;2.90;99.90;;;;;;5083687;28;20055;-85
2022/01/28 05:27:59;;;;;;;28.90;10.20;;;2.90;99.90;;;;;;5093048;28;20122;-85
2022/01/28 05:30:24;;;;;;;25.03;10.10;;;2.90;99.90;;;;;;5097146;28;20104;-85
2022/01/28 05:32:50;;;;;;;31.43;11.20;;;2.90;99.90;;;;;;5096862;28;20453;-85
2022/01/28 05:35:16;;;;;;;24.37;10.50;;;2.90;99.90;;;;;;5115097;28;20447;-86
2022/01/28 05:37:42;;;;;;;25.17;10.23;;;2.90;99.90;;;;;;5096269;28;20123;-88
2022/01/28 05:40:08;;;;;;;23.20;9.67;;;2.90;99.90;;;;;;5096527;28;20024;-87
2022/01/28 05:42:34;;;;;;;27.30;10.33;;;2.90;99.90;;;;;;5095573;28;20114;-88
2022/01/28 05:44:59;;;;;;;25.80;9.90;;;2.90;99.90;;;;;;5115148;28;20039;-85
2022/01/28 05:47:26;;;;;;;25.50;9.67;;;2.90;99.90;;;;;;5097079;28;20073;-85
2022/01/28 05:49:52;;;;;;;31.20;10.50;;;2.90;99.90;;;;;;5096356;28;20035;-85
2022/01/28 05:52:17;;;;;;;26.10;10.07;;;2.80;99.90;;;;;;5096878;28;20118;-87
2022/01/28 05:54:43;;;;;;;30.50;10.67;;;2.90;99.90;;;;;;5096307;28;20072;-87
2022/01/28 05:57:09;;;;;;;27.27;10.53;;;2.90;99.90;;;;;;5096593;28;20362;-87
2022/01/28 05:59:34;;;;;;;28.47;10.47;;;2.90;99.90;;;;;;5095987;28;20141;-87
2022/01/28 06:02:00;;;;;;;25.50;10.30;;;2.90;99.90;;;;;;5096887;28;20050;-91
2022/01/28 06:04:25;;;;;;;30.20;11.03;;;2.90;99.90;;;;;;5096130;28;20099;-91
2022/01/28 06:06:51;;;;;;;28.67;11.30;;;2.90;99.90;;;;;;5096503;28;20453;-93
2022/01/28 06:09:17;;;;;;;26.90;10.80;;;2.90;99.90;;;;;;5097013;28;20497;-94
2022/01/28 06:11:45;;;;;;;28.93;10.33;;;2.90;99.90;;;;;;5096655;28;20030;-95
2022/01/28 06:14:11;;;;;;;28.97;9.93;;;2.90;99.90;;;;;;5096565;28;20023;-93
2022/01/28 06:16:37;;;;;;;25.13;9.80;;;2.90;99.90;;;;;;5095659;28;20034;-83
2022/01/28 06:19:02;;;;;;;27.17;9.80;;;2.90;99.90;;;;;;5096653;28;20032;-83
2022/01/28 06:21:28;;;;;;;30.23;10.53;;;2.80;99.90;;;;;;5114546;28;20054;-84
2022/01/28 06:23:55;;;;;;;24.23;9.63;;;2.90;99.90;;;;;;5096211;28;20024;-87
2022/01/28 06:26:21;;;;;;;25.40;10.53;;;2.90;99.90;;;;;;5092805;28;20100;-89
2022/01/28 06:28:47;;;;;;;23.50;10.50;;;2.90;99.90;;;;;;5093787;28;20024;-88
2022/01/28 06:31:13;;;;;;;28.23;10.43;;;2.90;99.90;;;;;;5093041;28;20388;-89
2022/01/28 06:33:39;;;;;;;27.83;10.30;;;2.90;99.90;;;;;;5092680;28;20024;-88
2022/01/28 06:36:04;;;;;;;31.43;11.17;;;2.90;99.90;;;;;;5093039;28;20149;-88
2022/01/28 06:38:31;;;;;;;30.03;10.53;;;2.90;99.90;;;;;;5094569;28;20035;-83
2022/01/28 06:40:56;;;;;;;25.97;10.17;;;2.90;99.90;;;;;;5093975;28;20035;-88
2022/01/28 06:43:22;;;;;;;31.07;10.60;;;3.00;99.90;;;;;;5093596;28;20040;-88
2022/01/28 06:45:48;;;;;;;28.43;10.57;;;2.90;99.90;;;;;;5092239;28;20057;-89
2022/01/28 06:48:16;;;;;;;30.67;11.43;;;2.90;99.90;;;;;;5092587;28;20030;-89
2022/01/28 06:50:43;;;;;;;31.87;10.70;;;3.00;99.90;;;;;;5092515;28;20020;-89
2022/01/28 06:53:10;;;;;;;32.87;10.97;;;3.00;99.90;;;;;;5093898;28;20028;-89
2022/01/28 06:55:36;;;;;;;28.47;11.07;;;3.00;99.90;;;;;;5092219;28;20029;-89
2022/01/28 06:58:03;;;;;;;29.53;10.93;;;3.00;99.90;;;;;;5092720;28;20085;-91
2022/01/28 07:00:35;;;;;;;24.67;10.67;;;3.00;99.90;;;;;;5092759;28;20462;-89
2022/01/28 07:03:01;;;;;;;27.47;11.20;;;3.00;99.90;;;;;;5093102;28;20024;-89
2022/01/28 07:05:27;;;;;;;28.60;10.23;;;3.00;99.90;;;;;;5093911;28;20032;-87
2022/01/28 07:07:52;;;;;;;26.63;10.03;;;3.00;99.90;;;;;;5075567;28;20032;-87
2022/01/28 07:10:18;;;;;;;26.13;9.70;;;3.00;99.90;;;;;;5094353;28;20028;-87
2022/01/28 07:12:44;;;;;;;34.33;11.13;;;3.00;99.90;;;;;;5096227;28;20029;-86
2022/01/28 07:15:10;;;;;;;29.47;10.33;;;3.00;99.90;;;;;;5096282;28;20039;-85
2022/01/28 07:17:35;;;;;;;31.73;10.47;;;3.00;99.90;;;;;;5097079;28;20107;-84
2022/01/28 07:20:01;;;;;;;32.47;11.07;;;3.00;99.90;;;;;;5096483;28;20024;-84
2022/01/28 07:22:26;;;;;;;31.90;11.50;;;3.00;99.90;;;;;;5096404;28;20028;-87
2022/01/28 07:24:52;;;;;;;36.23;11.10;;;3.10;99.90;;;;;;5097973;28;20281;-86
2022/01/28 07:27:19;;;;;;;28.53;10.37;;;3.00;99.90;;;;;;5117830;28;20032;-84
2022/01/28 07:29:50;;;;;;;28.07;11.03;;;3.00;99.90;;;;;;5099189;28;20026;-83
2022/01/28 07:32:15;;;;;;;29.30;11.00;;;3.10;99.90;;;;;;5099858;28;20020;-84
2022/01/28 07:34:41;;;;;;;29.67;10.20;;;3.10;99.90;;;;;;5099236;28;20027;-83
2022/01/28 07:37:07;;;;;;;31.37;11.00;;;3.00;99.90;;;;;;5099036;28;20366;-86
2022/01/28 07:39:33;;;;;;;32.53;11.13;;;3.10;99.90;;;;;;5098771;28;20030;-85
2022/01/28 07:41:58;;;;;;;26.20;9.97;;;3.10;99.90;;;;;;5099019;28;20165;-86
2022/01/28 07:44:24;;;;;;;29.23;10.37;;;3.10;99.90;;;;;;5099495;28;20461;-87
2022/01/28 07:46:49;;;;;;;25.93;10.33;;;3.10;99.90;;;;;;5098757;28;20034;-86
2022/01/28 07:49:15;;;;;;;35.37;11.20;;;3.10;99.90;;;;;;5099185;28;20484;-86
2022/01/28 07:51:42;;;;;;;30.57;10.70;;;3.10;99.90;;;;;;5116151;28;20031;-87
2022/01/28 07:54:08;;;;;;;29.73;10.87;;;3.10;99.90;;;;;;5099000;28;20033;-83
2022/01/28 07:56:34;;;;;;;29.87;11.40;;;3.10;99.90;;;;;;5116362;28;20039;-82
2022/01/28 07:59:00;;;;;;;28.33;11.10;;;3.20;99.90;;;;;;5098437;28;20027;-82
2022/01/28 08:01:26;;;;;;;24.40;9.90;;;3.20;99.90;;;;;;5117153;28;20102;-86
2022/01/28 08:03:52;;;;;;;26.53;10.00;;;3.20;99.90;;;;;;5098625;28;20051;-87
2022/01/28 08:06:17;;;;;;;26.70;10.70;;;3.20;99.90;;;;;;5098776;28;20028;-86
2022/01/28 08:08:43;;;;;;;23.00;9.70;;;3.20;99.90;;;;;;5097440;28;20531;-86
2022/01/28 08:11:09;;;;;;;29.03;10.87;;;3.30;99.90;;;;;;5116516;28;20112;-86
2022/01/28 08:13:34;;;;;;;29.10;10.47;;;3.30;99.90;;;;;;5098682;28;20050;-86
2022/01/28 08:16:00;;;;;;;24.17;10.67;;;3.30;99.90;;;;;;5097893;28;20097;-84
2022/01/28 08:18:26;;;;;;;30.73;10.10;;;3.40;99.90;;;;;;5116628;28;20031;-84
2022/01/28 08:20:52;;;;;;;30.50;11.23;;;3.40;99.90;;;;;;5115671;28;20027;-87
2022/01/28 08:23:18;;;;;;;29.40;10.50;;;3.40;99.90;;;;;;5098515;28;20027;-87
2022/01/28 08:25:44;;;;;;;26.17;10.27;;;3.40;99.90;;;;;;5094404;28;20047;-86
2022/01/28 08:28:10;;;;;;;24.40;10.50;;;3.40;99.90;;;;;;5096468;28;20024;-85
2022/01/28 08:30:38;;;;;;;27.93;10.63;;;3.50;99.90;;;;;;5094713;28;20020;-86
2022/01/28 08:33:05;;;;;;;22.33;9.13;;;3.50;99.90;;;;;;5095155;28;20088;-85
2022/01/28 08:35:35;;;;;;;24.43;9.83;;;3.50;99.90;;;;;;5094463;28;20123;-86
2022/01/28 08:38:01;;;;;;;22.13;10.07;;;3.60;99.90;;;;;;5093749;28;20419;-94
2022/01/28 08:40:28;;;;;;;28.10;10.90;;;3.60;99.90;;;;;;5094284;28;20028;-87
2022/01/28 08:42:55;;;;;;;30.37;10.43;;;3.60;99.90;;;;;;5093752;28;20020;-88
2022/01/28 08:45:21;;;;;;;24.63;9.93;;;3.60;99.90;;;;;;5094326;28;20466;-84
2022/01/28 08:47:47;;;;;;;25.50;10.33;;;3.60;99.90;;;;;;5093855;28;20035;-83
2022/01/28 08:50:13;;;;;;;29.20;11.33;;;3.60;99.90;;;;;;5094248;28;20023;-84
2022/01/28 08:52:39;;;;;;;24.70;10.20;;;3.70;99.90;;;;;;5094054;28;20103;-82
2022/01/28 08:55:05;;;;;;;26.57;9.63;;;3.60;99.90;;;;;;5094093;28;20101;-84
2022/01/28 08:57:31;;;;;;;25.13;9.73;;;3.70;99.90;;;;;;5095040;28;20028;-84
2022/01/28 08:59:57;;;;;;;29.87;10.47;;;3.80;99.90;;;;;;5094319;28;20091;-83
2022/01/28 09:02:23;;;;;;;28.17;9.97;;;3.80;99.90;;;;;;5094079;28;20024;-83
2022/01/28 09:04:49;;;;;;;24.97;10.60;;;3.80;99.90;;;;;;5093339;28;20024;-83
2022/01/28 09:07:17;;;;;;;25.50;10.27;;;3.80;99.90;;;;;;5095792;28;20043;-82
2022/01/28 09:09:49;;;;;;;27.47;10.60;;;3.90;99.90;;;;;;5096027;28;20027;-82
2022/01/28 09:14:57;;;;;;;24.80;9.85;;;4.00;99.90;;;;;;5097578;28;20032;-83
2022/01/28 09:17:24;;;;;;;21.53;9.80;;;3.90;99.90;;;;;;5113991;28;20039;-83
2022/01/28 09:19:50;;;;;;;19.57;9.13;;;4.00;99.90;;;;;;5090035;28;20035;-81
2022/01/28 09:22:16;;;;;;;27.10;10.43;;;4.00;99.90;;;;;;5085960;28;20029;-84
2022/01/28 09:24:41;;;;;;;27.33;10.27;;;4.10;99.90;;;;;;5092430;28;20091;-81
2022/01/28 09:27:07;;;;;;;21.97;9.97;;;4.10;99.90;;;;;;5092864;28;20040;-83
2022/01/28 09:29:33;;;;;;;25.47;10.53;;;4.10;99.90;;;;;;5093280;28;20103;-84
2022/01/28 09:32:00;;;;;;;26.43;10.80;;;4.20;99.90;;;;;;5092031;28;20032;-85
2022/01/28 09:34:30;;;;;;;25.83;10.27;;;4.20;99.90;;;;;;5100983;28;20045;-82
2022/01/28 09:36:56;;;;;;;23.00;9.67;;;4.20;99.90;;;;;;5099945;28;20024;-81
2022/01/28 09:39:22;;;;;;;21.30;9.53;;;4.20;99.90;;;;;;5103107;28;20038;-81
2022/01/28 09:41:48;;;;;;;21.93;9.87;;;4.30;99.90;;;;;;5098617;28;20027;-81
2022/01/28 09:44:19;;;;;;;19.90;8.73;;;4.30;99.90;;;;;;5097680;28;20027;-85
2022/01/28 09:46:45;;;;;;;26.60;9.73;;;4.40;99.90;;;;;;5092052;28;20023;-80
2022/01/28 09:49:11;;;;;;;21.70;9.20;;;4.40;99.90;;;;;;5091547;28;20054;-79
2022/01/28 09:51:38;;;;;;;20.67;8.47;;;4.40;99.90;;;;;;5092678;28;20028;-81
2022/01/28 09:54:04;;;;;;;27.27;10.00;;;4.40;99.90;;;;;;5092931;28;20059;-89
2022/01/28 09:56:31;;;;;;;24.80;9.77;;;4.40;99.90;;;;;;5093291;28;20040;-82
2022/01/28 09:58:59;;;;;;;22.07;9.70;;;4.40;99.90;;;;;;5092525;28;20102;-86
2022/01/28 10:01:25;;;;;;;23.07;9.40;;;4.40;99.90;;;;;;5092301;28;20465;-81
2022/01/28 10:04:06;;;;;;;23.37;9.67;;;4.40;99.90;;;;;;5089890;28;20073;-81
2022/01/28 10:06:36;;;;;;;25.23;9.67;;;4.40;99.90;;;;;;5092239;28;20028;-80
2022/01/28 10:09:12;;;;;;;23.70;10.30;;;4.50;99.90;;;;;;5091277;28;20536;-80
2022/01/28 10:11:39;;;;;;;22.47;9.57;;;4.50;99.90;;;;;;5092623;28;20534;-80
2022/01/28 10:14:11;;;;;;;21.40;9.17;;;4.50;99.90;;;;;;5092198;28;20046;-80
2022/01/28 10:16:37;;;;;;;22.87;8.93;;;4.60;99.90;;;;;;5092475;28;20511;-80
2022/01/28 10:19:09;;;;;;;22.17;9.47;;;4.60;99.90;;;;;;5091398;28;20032;-81
2022/01/28 10:21:46;;;;;;;21.95;8.80;;;4.60;99.90;;;;;;5093221;28;20024;-80
2022/01/28 10:24:15;;;;;;;23.77;10.03;;;4.60;99.90;;;;;;5091982;28;20457;-80
2022/01/28 10:27:05;;;;;;;20.10;8.90;;;4.70;99.90;;;;;;5091566;28;20063;-81
2022/01/28 10:29:32;;;;;;;25.73;9.73;;;4.70;99.90;;;;;;5092393;28;20124;-81
2022/01/28 10:32:12;;;;;;;20.80;8.87;;;4.70;99.90;;;;;;5092062;28;20420;-81
2022/01/28 10:34:45;;;;;;;23.57;9.70;;;4.70;99.90;;;;;;5093313;28;20036;-80
2022/01/28 10:37:22;;;;;;;22.90;9.80;;;4.70;99.90;;;;;;5093540;28;20024;-80
2022/01/28 10:39:52;;;;;;;23.27;9.37;;;4.60;99.90;;;;;;5091821;28;20032;-81
2022/01/28 10:42:41;;;;;;;26.23;9.60;;;4.60;99.90;;;;;;5092386;28;20114;-81
2022/01/28 10:45:11;;;;;;;25.20;10.33;;;4.80;99.90;;;;;;5082861;28;20068;-81
2022/01/28 10:47:38;;;;;;;25.23;9.70;;;4.90;99.90;;;;;;5096174;28;20074;-81
2022/01/28 10:50:29;;;;;;;21.87;9.03;;;5.00;99.90;;;;;;5096468;28;20039;-81
2022/01/28 10:53:09;;;;;;;21.57;9.33;;;5.00;99.90;;;;;;5080215;28;20453;-80
2022/01/28 10:55:40;;;;;;;23.77;10.07;;;5.10;99.90;;;;;;5096060;28;20024;-80
2022/01/28 10:58:07;;;;;;;24.98;9.70;;;5.10;99.90;;;;;;5096485;28;20036;-81
2022/01/28 11:00:38;;;;;;;24.03;9.60;;;5.10;99.90;;;;;;5097361;28;20055;-81
2022/01/28 11:03:06;;;;;;;22.50;8.85;;;5.20;99.90;;;;;;5096424;28;20477;-80
2022/01/28 11:05:34;;;;;;;21.23;9.43;;;5.20;99.90;;;;;;5096134;28;20036;-81
2022/01/28 11:08:02;;;;;;;19.97;9.20;;;5.30;99.90;;;;;;5096669;28;20024;-81
2022/01/28 11:10:28;;;;;;;21.77;9.77;;;5.30;99.90;;;;;;5095430;28;20393;-83
2022/01/28 11:12:56;;;;;;;26.73;9.73;;;5.30;99.90;;;;;;5095679;28;20449;-83
2022/01/28 11:15:22;;;;;;;20.87;9.07;;;5.40;99.90;;;;;;5095495;28;20044;-83
2022/01/28 11:17:49;;;;;;;22.33;9.97;;;5.40;99.90;;;;;;5095551;28;20404;-84
2022/01/28 11:20:20;;;;;;;23.07;9.50;;;5.40;99.90;;;;;;5096909;28;20094;-83
2022/01/28 11:23:28;;;;;;;26.17;9.80;;;5.50;99.90;;;;;;5095618;28;20020;-84
2022/01/28 11:26:15;;;;;;;21.37;8.70;;;5.60;99.90;;;;;;5094939;28;20138;-83
2022/01/28 11:28:50;;;;;;;18.20;8.50;;;5.60;99.90;;;;;;5096382;28;20478;-82
2022/01/28 11:31:43;;;;;;;21.90;8.63;;;5.60;99.90;;;;;;5096093;28;20032;-82
2022/01/28 11:34:26;;;;;;;22.43;8.87;;;5.50;99.90;;;;;;5095574;28;20025;-82
2022/01/28 11:36:58;;;;;;;22.37;9.00;;;5.50;99.90;;;;;;5079970;28;20032;-83
2022/01/28 11:39:28;;;;;;;19.38;7.93;;;5.40;99.90;;;;;;5095634;28;20028;-82
2022/01/28 11:42:13;;;;;;;17.90;8.03;;;5.50;99.90;;;;;;5094891;28;20036;-82
2022/01/28 11:44:50;;;;;;;23.40;8.00;;;5.60;99.90;;;;;;5096768;28;20108;-82
2022/01/28 11:47:31;;;;;;;19.07;8.67;;;5.60;99.90;;;;;;5095333;28;20048;-83
2022/01/28 11:50:15;;;;;;;22.33;9.00;;;5.60;99.90;;;;;;5094563;28;20086;-83
2022/01/28 11:52:46;;;;;;;16.90;7.53;;;5.80;99.90;;;;;;5091855;28;20028;-83
2022/01/28 11:55:15;;;;;;;17.57;7.87;;;5.80;99.90;;;;;;5094442;28;20055;-82
2022/01/28 11:58:08;;;;;;;22.87;8.43;;;5.80;99.90;;;;;;5095783;28;20058;-82
2022/01/28 12:00:38;;;;;;;21.67;8.63;;;5.70;99.90;;;;;;5096629;28;20126;-83
2022/01/28 12:03:22;;;;;;;18.97;8.33;;;5.80;99.90;;;;;;5095121;28;20020;-82
2022/01/28 12:05:48;;;;;;;20.83;8.10;;;5.80;99.90;;;;;;5094603;28;20119;-82
2022/01/28 12:08:16;;;;;;;26.20;8.30;;;5.80;99.90;;;;;;5095150;28;20051;-82
2022/01/28 12:10:45;;;;;;;19.90;8.13;;;5.80;99.90;;;;;;5093785;28;20059;-83
2022/01/28 12:13:17;;;;;;;18.00;7.57;;;5.80;99.90;;;;;;5096210;28;20107;-83
2022/01/28 12:16:03;;;;;;;21.15;8.48;;;5.80;99.90;;;;;;5094239;28;20473;-84
2022/01/28 12:18:43;;;;;;;22.40;8.97;;;6.00;99.90;;;;;;5095360;28;20113;-82
2022/01/28 12:21:13;;;;;;;23.37;8.90;;;6.10;99.90;;;;;;5094684;28;20028;-83
2022/01/28 12:23:39;;;;;;;18.90;7.10;;;6.20;99.90;;;;;;5094704;28;20465;-82
2022/01/28 12:26:05;;;;;;;13.67;5.77;;;6.20;99.90;;;;;;5107127;28;20063;-82
2022/01/28 12:28:30;;;;;;;11.23;5.50;;;6.20;99.90;;;;;;5098162;28;20084;-83
2022/01/28 12:30:59;;;;;;;14.37;5.37;;;6.20;99.90;;;;;;5115531;28;20020;-82
2022/01/28 12:33:27;;;;;;;11.50;4.97;;;6.10;99.90;;;;;;5097589;28;20126;-82
2022/01/28 12:35:56;;;;;;;14.47;4.70;;;6.00;99.90;;;;;;5110733;28;20477;-84
2022/01/28 12:38:24;;;;;;;8.17;4.47;;;6.30;99.90;;;;;;5111966;28;20033;-85
2022/01/28 12:40:54;;;;;;;12.17;5.00;;;6.40;99.90;;;;;;5081005;28;20054;-84
2022/01/28 12:43:23;;;;;;;11.70;4.70;;;6.40;99.90;;;;;;5098112;28;20031;-84
2022/01/28 12:46:11;;;;;;;12.13;5.67;;;6.80;99.90;;;;;;5096866;28;20034;-82
2022/01/28 12:48:49;;;;;;;10.97;4.80;;;7.10;99.90;;;;;;5097508;28;20032;-84
2022/01/28 12:51:15;;;;;;;10.23;4.73;;;7.30;99.90;;;;;;5097486;28;20016;-86
2022/01/28 12:53:42;;;;;;;11.10;5.23;;;7.40;99.90;;;;;;5096893;28;20031;-90
2022/01/28 12:56:09;;;;;;;8.50;4.40;;;7.60;98.70;;;;;;5113097;28;20032;-80
2022/01/28 12:58:45;;;;;;;10.70;4.43;;;7.70;99.40;;;;;;5097272;28;20028;-81
2022/01/28 13:01:13;;;;;;;12.07;4.93;;;7.90;99.00;;;;;;5093503;28;20461;-88
2022/01/28 13:03:50;;;;;;;8.70;4.73;;;8.00;98.30;;;;;;5096966;28;20130;-85
2022/01/28 13:08:24;;;;;;;9.93;4.43;;;8.00;98.50;;;;;;5113400;28;20046;-88
2022/01/28 13:09:16;;;;;;;9.07;4.47;;;7.90;97.80;;;;;;5087446;28;20036;-84
2022/01/28 13:11:54;;;;;;;11.87;4.70;;;7.90;98.40;;;;;;5097091;28;20032;-87
2022/01/28 13:14:40;;;;;;;12.27;5.93;;;8.00;98.00;;;;;;5115243;28;20024;-83
2022/01/28 13:17:08;;;;;;;10.95;5.10;;;8.10;97.60;;;;;;5100564;28;20468;-89
2022/01/28 13:19:34;;;;;;;12.85;4.65;;;8.00;98.10;;;;;;5096437;28;20034;-83
2022/01/28 13:22:00;;;;;;;11.05;5.15;;;7.80;98.20;;;;;;5096430;28;20072;-90
2022/01/28 13:24:29;;;;;;;11.67;5.40;;;7.70;98.40;;;;;;5096841;28;20023;-83
2022/01/28 13:27:07;;;;;;;12.67;4.93;;;7.50;99.10;;;;;;5096377;28;20044;-93
2022/01/28 13:29:44;;;;;;;9.50;4.43;;;7.40;99.40;;;;;;5099470;27;20446;-82
2022/01/28 13:32:22;;;;;;;12.03;5.00;;;7.40;99.70;;;;;;5103630;27;20110;-84
2022/01/28 13:34:56;;;;;;;13.63;4.60;;;7.50;99.00;;;;;;5101863;27;20024;-88
2022/01/28 13:37:49;;;;;;;10.73;4.27;;;7.50;99.00;;;;;;5098362;28;20059;-89
2022/01/28 13:40:17;;;;;;;11.20;4.67;;;7.50;98.90;;;;;;5096873;28;20028;-90
2022/01/28 13:43:00;;;;;;;11.73;5.13;;;7.60;99.20;;;;;;5096562;28;20023;-91
2022/01/28 13:45:43;;;;;;;11.35;4.88;;;8.10;97.30;;;;;;5096809;28;20035;-90
2022/01/28 13:48:19;;;;;;;10.82;4.85;;;8.00;97.40;;;;;;5096773;28;20026;-90
2022/01/28 13:50:48;;;;;;;8.98;4.45;;;8.40;96.90;;;;;;5079376;28;20019;-89
2022/01/28 13:56:04;;;;;;;12.18;5.32;;;8.50;96.30;;;;;;5114316;28;20400;-91
2022/01/28 13:58:42;;;;;;;12.70;5.63;;;8.50;96.40;;;;;;5097012;28;20028;-91
2022/01/28 14:01:09;;;;;;;9.88;5.13;;;9.00;95.30;;;;;;5096635;28;20114;-85
2022/01/28 14:03:50;;;;;;;14.02;4.78;;;8.80;95.30;;;;;;5114453;28;20024;-85
2022/01/28 14:06:21;;;;;;;12.52;4.85;;;8.60;95.90;;;;;;5096483;28;20023;-85
2022/01/28 14:08:54;;;;;;;10.68;4.82;;;8.50;96.90;;;;;;5095716;28;20039;-85
2022/01/28 14:11:51;;;;;;;10.85;5.05;;;8.40;96.80;;;;;;5096288;28;20023;-86
2022/01/28 14:14:23;;;;;;;10.43;4.57;;;8.20;97.20;;;;;;5110955;28;20039;-87
2022/01/28 14:16:59;;;;;;;11.32;4.78;;;8.10;97.50;;;;;;5078595;28;20027;-86
2022/01/28 14:19:31;;;;;;;10.32;4.13;;;8.10;97.40;;;;;;5095157;28;20028;-85
2022/01/28 14:21:58;;;;;;;11.40;4.80;;;8.10;97.40;;;;;;5095808;28;20205;-87
2022/01/28 14:24:29;;;;;;;10.70;4.38;;;8.00;97.10;;;;;;5095942;28;20036;-85
2022/01/28 14:32:03;;;;;;;13.68;6.20;;;7.80;98.10;;;;;;5113555;28;20131;-85
2022/01/28 14:34:29;;;;;;;11.90;5.20;;;7.80;98.20;;;;;;5095850;28;20027;-84